createdAt,value
2018-12-06T00:02:06.259Z,15.07
2018-12-06T00:04:35.107Z,12.97
2018-12-06T00:07:04.299Z,12.37
2018-12-06T00:09:33.415Z,13.23
2018-12-06T00:12:02.487Z,14.40
2018-12-06T00:14:31.292Z,11.20
2018-12-06T00:17:00.416Z,12.57
2018-12-06T00:19:30.978Z,12.73
2018-12-06T00:22:00.216Z,14.73
2018-12-06T00:24:29.719Z,14.03
2018-12-06T00:26:59.229Z,14.60
2018-12-06T00:29:28.739Z,15.40
2018-12-06T00:31:57.511Z,13.33
2018-12-06T00:34:26.815Z,13.93
2018-12-06T00:36:56.010Z,10.53
2018-12-06T00:39:25.211Z,14.33
2018-12-06T00:41:54.087Z,10.60
2018-12-06T00:44:23.094Z,10.60
2018-12-06T00:46:52.295Z,11.40
2018-12-06T00:49:21.392Z,11.27
2018-12-06T00:51:50.240Z,13.20
2018-12-06T00:54:19.374Z,13.30
2018-12-06T00:56:48.223Z,11.07
2018-12-06T00:59:17.287Z,13.70
2018-12-06T01:01:46.357Z,12.70
2018-12-06T01:04:15.227Z,11.53
2018-12-06T01:06:44.340Z,12.20
2018-12-06T01:09:13.110Z,10.43
2018-12-06T01:11:42.425Z,11.03
2018-12-06T01:14:11.687Z,14.00
2018-12-06T01:16:40.827Z,20.57
2018-12-06T01:19:09.645Z,14.27
2018-12-06T01:21:38.955Z,11.13
2018-12-06T01:24:08.135Z,10.90
2018-12-06T01:26:37.263Z,13.43
2018-12-06T01:29:06.304Z,13.43
2018-12-06T01:31:36.329Z,11.43
2018-12-06T01:34:05.439Z,14.00
2018-12-06T01:36:34.723Z,12.63
2018-12-06T01:39:05.247Z,9.53
2018-12-06T01:41:34.491Z,10.73
2018-12-06T01:44:03.570Z,11.40
2018-12-06T01:46:32.412Z,13.80
2018-12-06T01:49:01.735Z,12.33
2018-12-06T01:51:30.791Z,12.80
2018-12-06T01:54:00.235Z,11.00
2018-12-06T01:56:29.115Z,9.40
2018-12-06T01:58:58.074Z,10.33
2018-12-06T02:01:27.271Z,10.67
2018-12-06T02:03:56.211Z,10.93
2018-12-06T02:06:25.060Z,10.17
2018-12-06T02:08:53.937Z,12.47
2018-12-06T02:11:23.187Z,11.93
2018-12-06T02:13:52.178Z,9.60
2018-12-06T02:16:20.971Z,9.43
2018-12-06T02:18:50.067Z,10.60
2018-12-06T02:21:19.163Z,12.03
2018-12-06T02:23:47.894Z,10.57
2018-12-06T02:26:17.042Z,11.03
2018-12-06T02:28:46.346Z,13.27
2018-12-06T02:31:15.554Z,11.33
2018-12-06T02:33:44.644Z,8.47
2018-12-06T02:36:13.750Z,10.17
2018-12-06T02:38:42.887Z,11.27
2018-12-06T02:41:11.715Z,10.73
2018-12-06T02:43:40.571Z,10.87
2018-12-06T02:46:09.815Z,10.60
2018-12-06T02:48:38.912Z,10.53
2018-12-06T02:51:07.785Z,11.43
2018-12-06T02:53:36.672Z,7.47
2018-12-06T02:56:05.758Z,14.83
2018-12-06T02:58:34.737Z,11.13
2018-12-06T03:01:04.288Z,10.20
2018-12-06T03:03:33.495Z,10.20
2018-12-06T03:06:02.998Z,16.33
2018-12-06T03:08:31.972Z,11.77
2018-12-06T03:11:01.047Z,11.17
2018-12-06T03:13:30.180Z,11.73
2018-12-06T03:15:59.218Z,10.80
2018-12-06T03:18:28.489Z,10.23
2018-12-06T03:20:57.696Z,9.23
2018-12-06T03:23:26.561Z,11.07
2018-12-06T03:25:55.759Z,13.50
2018-12-06T03:28:24.973Z,12.63
2018-12-06T03:30:54.467Z,9.87
2018-12-06T03:33:23.341Z,10.27
2018-12-06T03:35:52.252Z,10.97
2018-12-06T03:38:21.522Z,14.07
2018-12-06T03:40:50.954Z,14.63
2018-12-06T03:43:19.787Z,12.07
2018-12-06T03:45:48.944Z,15.43
2018-12-06T03:48:18.048Z,10.77
2018-12-06T03:50:47.094Z,12.73
2018-12-06T03:53:15.921Z,13.30
2018-12-06T03:55:45.386Z,12.10
2018-12-06T03:58:14.547Z,11.03
2018-12-06T04:00:43.384Z,9.77
2018-12-06T04:03:12.407Z,12.37
2018-12-06T04:05:41.633Z,12.17
2018-12-06T04:08:10.450Z,13.00
2018-12-06T04:10:39.314Z,14.07
2018-12-06T04:13:08.255Z,12.70
2018-12-06T04:15:37.176Z,15.30
2018-12-06T04:18:06.268Z,11.97
2018-12-06T04:20:35.096Z,10.90
2018-12-06T04:23:04.356Z,12.43
2018-12-06T04:25:33.963Z,13.77
2018-12-06T04:28:03.210Z,11.47
2018-12-06T04:30:32.080Z,13.20
2018-12-06T04:33:01.259Z,19.20
2018-12-06T04:35:30.174Z,17.77
2018-12-06T04:37:59.350Z,15.33
2018-12-06T04:40:28.247Z,11.10
2018-12-06T04:42:57.308Z,13.50
2018-12-06T04:45:26.152Z,20.17
2018-12-06T04:47:54.987Z,14.80
2018-12-06T04:50:24.048Z,14.00
2018-12-06T04:52:52.848Z,15.47
2018-12-06T04:55:21.984Z,14.33
2018-12-06T04:57:50.992Z,12.60
2018-12-06T05:00:19.834Z,12.70
2018-12-06T05:02:48.972Z,13.40
2018-12-06T05:05:18.199Z,14.20
2018-12-06T05:07:46.970Z,15.00
2018-12-06T05:10:16.057Z,16.57
2018-12-06T05:12:45.360Z,14.87
2018-12-06T05:15:14.233Z,16.60
2018-12-06T05:17:43.440Z,16.23
2018-12-06T05:20:12.527Z,21.37
2018-12-06T05:22:41.972Z,14.90
2018-12-06T05:25:11.159Z,13.40
2018-12-06T05:27:40.064Z,14.37
2018-12-06T05:30:08.879Z,17.57
2018-12-06T05:32:37.728Z,15.53
2018-12-06T05:35:07.423Z,18.97
2018-12-06T05:37:36.643Z,13.70
2018-12-06T05:40:06.402Z,12.10
2018-12-06T05:42:35.422Z,13.30
2018-12-06T05:45:04.708Z,15.00
2018-12-06T05:47:33.640Z,15.17
2018-12-06T05:50:02.716Z,16.60
2018-12-06T05:52:31.841Z,15.43
2018-12-06T05:55:00.687Z,11.17
2018-12-06T05:57:30.555Z,14.60
2018-12-06T05:59:59.510Z,14.17
2018-12-06T06:02:28.294Z,13.97
2018-12-06T06:04:57.216Z,11.93
2018-12-06T06:07:26.840Z,15.57
2018-12-06T06:09:55.716Z,13.03
2018-12-06T06:12:24.530Z,13.43
2018-12-06T06:14:53.379Z,12.93
2018-12-06T06:17:22.500Z,12.57
2018-12-06T06:19:52.275Z,17.33
2018-12-06T06:22:21.732Z,9.90
2018-12-06T06:24:51.122Z,12.13
2018-12-06T06:27:20.200Z,13.73
2018-12-06T06:29:49.963Z,13.53
2018-12-06T06:32:19.271Z,10.53
2018-12-06T06:34:48.517Z,16.33
2018-12-06T06:37:17.459Z,14.53
2018-12-06T06:39:46.516Z,17.53
2018-12-06T06:42:15.346Z,15.27
2018-12-06T06:44:44.430Z,17.60
2018-12-06T06:47:13.563Z,15.87
2018-12-06T06:49:42.476Z,10.23
2018-12-06T06:52:11.653Z,18.70
2018-12-06T06:54:40.671Z,12.93
2018-12-06T06:57:09.731Z,12.20
2018-12-06T06:59:39.159Z,17.03
2018-12-06T07:02:08.339Z,14.57
2018-12-06T07:04:37.251Z,11.93
2018-12-06T07:07:06.339Z,16.50
2018-12-06T07:09:35.536Z,13.37
2018-12-06T07:12:04.724Z,11.83
2018-12-06T07:14:33.656Z,20.57
2018-12-06T07:17:04.110Z,13.80
2018-12-06T07:19:33.447Z,16.37
2018-12-06T07:22:02.641Z,18.90
2018-12-06T07:24:31.479Z,16.67
2018-12-06T07:27:00.263Z,15.40
2018-12-06T07:29:29.524Z,13.90
2018-12-06T07:31:58.779Z,17.70
2018-12-06T07:34:27.651Z,16.80
2018-12-06T07:36:57.032Z,15.10
2018-12-06T07:39:26.321Z,24.13
2018-12-06T07:41:55.514Z,17.33
2018-12-06T07:44:24.729Z,14.20
2018-12-06T07:46:53.908Z,18.63
2018-12-06T07:49:22.783Z,17.47
2018-12-06T07:51:51.891Z,13.03
2018-12-06T07:54:21.090Z,17.10
2018-12-06T07:56:50.303Z,15.43
2018-12-06T07:59:19.673Z,15.47
2018-12-06T08:01:49.522Z,22.20
2018-12-06T08:04:18.400Z,16.87
2018-12-06T08:06:47.602Z,16.40
2018-12-06T08:09:16.468Z,18.87
2018-12-06T08:11:45.332Z,16.93
2018-12-06T08:14:14.591Z,22.40
2018-12-06T08:16:44.229Z,17.20
2018-12-06T08:19:14.070Z,18.43
2018-12-06T08:21:43.432Z,20.50
2018-12-06T08:24:12.275Z,20.53
2018-12-06T08:26:41.071Z,16.53
2018-12-06T08:29:10.187Z,19.47
2018-12-06T08:31:39.384Z,17.67
2018-12-06T08:34:08.261Z,18.27
2018-12-06T08:36:37.097Z,18.97
2018-12-06T08:39:08.271Z,20.17
2018-12-06T08:41:37.499Z,19.50
2018-12-06T08:44:07.510Z,19.63
2018-12-06T08:46:36.727Z,20.97
2018-12-06T08:49:06.169Z,18.97
2018-12-06T08:51:35.417Z,24.00
2018-12-06T08:54:04.293Z,24.60
2018-12-06T08:56:33.632Z,31.07
2018-12-06T08:59:02.948Z,25.47
2018-12-06T09:01:32.027Z,28.63
2018-12-06T09:04:01.213Z,19.37
2018-12-06T09:06:30.145Z,22.47
2018-12-06T09:08:59.505Z,22.47
2018-12-06T09:11:28.769Z,21.17
2018-12-06T09:13:57.900Z,25.83
2018-12-06T09:16:26.959Z,21.23
2018-12-06T09:18:56.108Z,20.73
2018-12-06T09:21:25.187Z,23.20
2018-12-06T09:23:54.279Z,17.23
2018-12-06T09:26:23.531Z,17.77
2018-12-06T09:28:52.765Z,16.70
2018-12-06T09:31:22.116Z,14.70
2018-12-06T09:34:06.076Z,17.20
2018-12-06T09:36:35.343Z,17.00
2018-12-06T09:39:05.239Z,26.37
2018-12-06T09:41:34.273Z,14.80
2018-12-06T09:44:03.837Z,14.43
2018-12-06T09:46:35.493Z,20.50
2018-12-06T09:49:05.746Z,14.53
2018-12-06T09:51:35.431Z,19.40
2018-12-06T09:54:04.635Z,20.43
2018-12-06T09:56:33.507Z,13.97
2018-12-06T09:59:02.783Z,15.93
2018-12-06T10:01:32.142Z,16.93
2018-12-06T10:04:00.975Z,19.03
2018-12-06T10:06:30.110Z,18.47
2018-12-06T10:08:59.204Z,17.77
2018-12-06T10:11:28.114Z,22.27
2018-12-06T10:13:57.291Z,22.67
2018-12-06T10:16:26.260Z,20.20
2018-12-06T10:18:55.499Z,25.60
2018-12-06T10:21:24.479Z,17.37
2018-12-06T10:23:53.678Z,16.77
2018-12-06T10:26:22.792Z,20.23
2018-12-06T10:28:51.705Z,20.13
2018-12-06T10:31:20.699Z,25.63
2018-12-06T10:33:49.507Z,19.33
2018-12-06T10:36:18.648Z,19.53
2018-12-06T10:38:47.906Z,16.13
2018-12-06T10:41:16.723Z,22.77
2018-12-06T10:43:45.839Z,20.70
2018-12-06T10:46:14.743Z,16.33
2018-12-06T10:48:44.023Z,17.30
2018-12-06T10:51:24.184Z,14.73
2018-12-06T10:53:53.992Z,16.13
2018-12-06T10:56:22.922Z,22.00
2018-12-06T10:58:51.772Z,19.10
2018-12-06T11:01:25.760Z,20.93
2018-12-06T11:04:01.916Z,20.53
2018-12-06T11:06:30.935Z,19.10
2018-12-06T11:09:00.280Z,15.03
2018-12-06T11:11:29.448Z,20.60
2018-12-06T11:13:58.644Z,18.13
2018-12-06T11:16:27.521Z,19.57
2018-12-06T11:18:56.698Z,20.80
2018-12-06T11:21:26.169Z,21.97
2018-12-06T11:23:55.132Z,16.70
2018-12-06T11:26:23.991Z,25.30
2018-12-06T11:28:53.210Z,22.07
2018-12-06T11:31:22.472Z,17.27
2018-12-06T11:33:51.628Z,19.97
2018-12-06T11:36:20.911Z,18.27
2018-12-06T11:38:50.115Z,17.80
2018-12-06T11:41:19.240Z,17.97
2018-12-06T11:43:48.312Z,22.17
2018-12-06T11:46:17.404Z,17.23
2018-12-06T11:48:46.700Z,23.67
2018-12-06T11:51:15.634Z,19.00
2018-12-06T11:53:44.520Z,24.30
2018-12-06T11:56:13.667Z,17.57
2018-12-06T11:58:42.732Z,16.57
2018-12-06T12:01:11.810Z,16.37
2018-12-06T12:03:40.875Z,20.03
2018-12-06T12:06:10.094Z,19.00
2018-12-06T12:08:39.730Z,19.57
2018-12-06T12:11:08.975Z,15.73
2018-12-06T12:13:38.571Z,19.17
2018-12-06T12:16:07.775Z,21.73
2018-12-06T12:18:36.970Z,15.37
2018-12-06T12:21:06.275Z,18.13
2018-12-06T12:23:35.571Z,14.63
2018-12-06T12:26:04.578Z,21.27
2018-12-06T12:28:33.769Z,20.47
2018-12-06T12:31:03.046Z,24.63
2018-12-06T12:33:31.923Z,17.07
2018-12-06T12:36:01.047Z,21.50
2018-12-06T12:38:29.830Z,28.20
2018-12-06T12:40:59.189Z,26.27
2018-12-06T12:43:28.335Z,17.20
2018-12-06T12:45:57.444Z,15.67
2018-12-06T12:48:26.399Z,17.60
2018-12-06T12:50:55.667Z,27.93
2018-12-06T12:53:24.831Z,21.93
2018-12-06T12:55:53.971Z,19.83
2018-12-06T12:58:23.224Z,18.73
2018-12-06T13:00:52.676Z,21.20
2018-12-06T13:03:21.936Z,29.80
2018-12-06T13:05:50.896Z,23.13
2018-12-06T13:08:20.123Z,20.07
2018-12-06T13:10:49.384Z,19.37
2018-12-06T13:13:18.536Z,23.33
2018-12-06T13:15:47.821Z,20.10
2018-12-06T13:18:16.762Z,14.40
2018-12-06T13:20:46.224Z,14.47
2018-12-06T13:23:15.868Z,17.50
2018-12-06T13:25:45.108Z,21.53
2018-12-06T13:28:14.634Z,21.07
2018-12-06T13:30:44.139Z,29.83
2018-12-06T13:33:13.344Z,20.57
2018-12-06T13:35:42.527Z,22.13
2018-12-06T13:38:12.138Z,26.80
2018-12-06T13:40:41.235Z,21.83
2018-12-06T13:43:10.170Z,23.77
2018-12-06T13:45:39.067Z,23.20
2018-12-06T13:48:07.933Z,21.93
2018-12-06T13:50:37.003Z,17.70
2018-12-06T13:53:05.879Z,18.60
2018-12-06T13:55:35.100Z,18.50
2018-12-06T13:58:04.313Z,23.03
2018-12-06T14:00:33.662Z,21.73
2018-12-06T14:03:02.960Z,16.57
2018-12-06T14:05:31.727Z,19.30
2018-12-06T14:08:01.076Z,24.10
2018-12-06T14:10:29.999Z,24.03
2018-12-06T14:12:59.420Z,17.50
2018-12-06T14:15:28.275Z,19.03
2018-12-06T14:17:57.889Z,20.70
2018-12-06T14:20:27.187Z,23.63
2018-12-06T14:22:56.126Z,21.00
2018-12-06T14:25:25.399Z,20.50
2018-12-06T14:27:54.340Z,21.57
2018-12-06T14:30:23.458Z,26.10
2018-12-06T14:32:52.539Z,23.67
2018-12-06T14:35:21.759Z,24.13
2018-12-06T14:37:50.957Z,23.33
2018-12-06T14:40:20.156Z,23.17
2018-12-06T14:42:49.903Z,30.10
2018-12-06T14:45:18.916Z,23.37
2018-12-06T14:47:48.051Z,20.53
2018-12-06T14:50:17.260Z,20.13
2018-12-06T14:52:46.139Z,21.83
2018-12-06T14:55:15.334Z,24.07
2018-12-06T14:57:44.243Z,22.77
2018-12-06T15:00:13.675Z,22.53
2018-12-06T15:02:42.539Z,20.23
2018-12-06T15:05:12.053Z,24.63
2018-12-06T15:07:41.229Z,20.97
2018-12-06T15:10:10.527Z,20.50
2018-12-06T15:12:39.777Z,23.90
2018-12-06T15:15:08.826Z,23.33
2018-12-06T15:17:37.963Z,25.03
2018-12-06T15:20:07.539Z,30.00
2018-12-06T15:22:36.748Z,27.77
2018-12-06T15:25:06.713Z,23.97
2018-12-06T15:27:35.758Z,22.13
2018-12-06T15:30:05.072Z,22.63
2018-12-06T15:32:34.309Z,20.93
2018-12-06T15:35:03.939Z,24.33
2018-12-06T15:37:33.032Z,23.37
2018-12-06T15:40:02.152Z,25.17
2018-12-06T15:42:31.149Z,25.77
2018-12-06T15:44:59.899Z,28.60
2018-12-06T15:47:29.429Z,31.20
2018-12-06T15:49:58.643Z,28.17
2018-12-06T15:52:27.823Z,26.67
2018-12-06T15:54:57.026Z,30.03
2018-12-06T15:57:26.116Z,31.77
2018-12-06T15:59:55.017Z,30.77
2018-12-06T16:02:24.204Z,36.37
2018-12-06T16:04:53.095Z,30.07
2018-12-06T16:07:22.621Z,34.00
2018-12-06T16:09:51.704Z,32.97
2018-12-06T16:12:20.920Z,35.63
2018-12-06T16:14:49.793Z,34.13
2018-12-06T16:17:18.889Z,31.87
2018-12-06T16:19:47.803Z,31.37
2018-12-06T16:22:17.084Z,39.93
2018-12-06T16:24:46.384Z,39.83
2018-12-06T16:27:47.592Z,34.47
2018-12-06T16:30:16.869Z,35.37
2018-12-06T16:32:46.018Z,30.63
2018-12-06T16:35:15.133Z,31.90
2018-12-06T16:37:44.447Z,34.87
2018-12-06T16:40:13.745Z,30.93
2018-12-06T16:42:42.906Z,36.37
2018-12-06T16:45:12.219Z,27.67
2018-12-06T16:47:41.374Z,29.33
2018-12-06T16:50:10.880Z,32.33
2018-12-06T16:52:40.145Z,39.30
2018-12-06T16:55:09.754Z,34.07
2018-12-06T16:57:38.727Z,30.53
2018-12-06T17:00:12.332Z,32.43
2018-12-06T17:02:41.456Z,32.60
2018-12-06T17:05:10.722Z,30.03
2018-12-06T17:07:39.834Z,37.27
2018-12-06T17:10:09.432Z,32.87
2018-12-06T17:12:38.747Z,33.73
2018-12-06T17:15:08.551Z,36.53
2018-12-06T17:17:37.672Z,29.83
2018-12-06T17:20:07.604Z,31.23
2018-12-06T17:22:36.868Z,32.30
2018-12-06T17:25:06.724Z,29.83
2018-12-06T17:27:35.903Z,34.63
2018-12-06T17:30:06.081Z,31.50
2018-12-06T17:32:35.127Z,30.83
2018-12-06T17:35:04.757Z,38.40
2018-12-06T17:37:33.979Z,33.90
2018-12-06T17:40:03.238Z,32.67
2018-12-06T17:42:32.379Z,27.07
2018-12-06T17:45:01.616Z,30.07
2018-12-06T17:47:31.129Z,33.50
2018-12-06T17:50:00.297Z,25.33
2018-12-06T17:52:29.571Z,30.07
2018-12-06T17:54:59.248Z,28.93
2018-12-06T17:57:28.314Z,31.23
2018-12-06T17:59:57.485Z,33.03
2018-12-06T18:02:26.691Z,29.40
2018-12-06T18:04:55.985Z,28.80
2018-12-06T18:07:24.789Z,28.00
2018-12-06T18:09:53.878Z,26.87
2018-12-06T18:12:23.053Z,24.97
2018-12-06T18:14:52.062Z,26.30
2018-12-06T18:17:22.513Z,28.47
2018-12-06T18:19:51.606Z,25.03
2018-12-06T18:22:20.588Z,31.70
2018-12-06T18:24:49.779Z,30.37
2018-12-06T18:27:19.083Z,30.70
2018-12-06T18:29:48.028Z,25.23
2018-12-06T18:32:17.223Z,25.40
2018-12-06T18:34:46.467Z,28.13
2018-12-06T18:37:16.085Z,27.20
2018-12-06T18:39:44.959Z,22.13
2018-12-06T18:42:14.055Z,26.93
2018-12-06T18:44:42.932Z,26.97
2018-12-06T18:47:12.061Z,26.53
2018-12-06T18:49:41.167Z,25.30
2018-12-06T18:52:10.344Z,23.27
2018-12-06T18:54:39.209Z,26.30
2018-12-06T18:57:08.818Z,30.20
2018-12-06T18:59:37.925Z,26.47
2018-12-06T19:02:06.959Z,27.73
2018-12-06T19:04:36.023Z,30.63
2018-12-06T19:07:04.955Z,30.57
2018-12-06T19:09:34.115Z,28.10
2018-12-06T19:12:02.894Z,26.43
2018-12-06T19:14:32.004Z,29.40
2018-12-06T19:17:01.036Z,34.43
2018-12-06T19:19:30.272Z,30.50
2018-12-06T19:21:59.238Z,24.73
2018-12-06T19:24:28.168Z,28.13
2018-12-06T19:26:57.808Z,26.33
2018-12-06T19:29:27.023Z,28.53
2018-12-06T19:31:55.860Z,36.73
2018-12-06T19:34:24.746Z,38.23
2018-12-06T19:36:53.768Z,29.80
2018-12-06T19:39:23.080Z,33.73
2018-12-06T19:41:52.268Z,37.87
2018-12-06T19:44:21.077Z,35.13
2018-12-06T19:46:49.940Z,29.77
2018-12-06T19:49:19.478Z,34.73
2018-12-06T19:51:48.315Z,26.60
2018-12-06T19:54:17.579Z,34.47
2018-12-06T19:56:46.357Z,30.63
2018-12-06T19:59:15.827Z,29.47
2018-12-06T20:01:45.349Z,31.17
2018-12-06T20:04:15.053Z,31.40
2018-12-06T20:06:44.650Z,29.37
2018-12-06T20:09:14.115Z,35.50
2018-12-06T20:11:43.397Z,33.27
2018-12-06T20:14:12.549Z,43.43
2018-12-06T20:16:42.224Z,38.50
2018-12-06T20:19:11.104Z,36.63
2018-12-06T20:21:40.052Z,39.10
2018-12-06T20:24:09.157Z,41.47
2018-12-06T20:26:38.020Z,40.47
2018-12-06T20:29:07.131Z,42.10
2018-12-06T20:31:37.043Z,40.27
2018-12-06T20:34:05.931Z,34.97
2018-12-06T20:36:34.746Z,39.67
2018-12-06T20:39:04.678Z,45.67
2018-12-06T20:41:33.800Z,53.97
2018-12-06T20:44:02.960Z,59.20
2018-12-06T20:46:31.826Z,65.27
2018-12-06T20:49:00.686Z,59.47
2018-12-06T20:51:29.591Z,56.20
2018-12-06T20:53:58.712Z,52.20
2018-12-06T20:56:27.527Z,67.70
2018-12-06T20:58:56.719Z,54.93
2018-12-06T21:01:25.671Z,52.17
2018-12-06T21:03:54.583Z,60.03
2018-12-06T21:06:23.679Z,48.93
2018-12-06T21:08:52.977Z,45.30
2018-12-06T21:11:22.170Z,48.77
2018-12-06T21:13:51.196Z,49.93
2018-12-06T21:16:20.364Z,54.23
2018-12-06T21:18:49.228Z,53.50
2018-12-06T21:21:18.346Z,44.63
2018-12-06T21:23:47.452Z,54.23
2018-12-06T21:26:16.304Z,50.33
2018-12-06T21:28:45.199Z,50.10
2018-12-06T21:31:14.523Z,48.60
2018-12-06T21:33:43.733Z,63.27
2018-12-06T21:36:12.933Z,70.83
2018-12-06T21:38:42.018Z,53.93
2018-12-06T21:41:11.205Z,59.47
2018-12-06T21:43:40.426Z,56.53
2018-12-06T21:46:09.528Z,48.57
2018-12-06T21:48:38.406Z,57.37
2018-12-06T21:51:07.504Z,56.77
2018-12-06T21:53:36.316Z,55.60
2018-12-06T21:56:05.997Z,55.13
2018-12-06T21:58:36.135Z,48.90
2018-12-06T22:01:05.328Z,55.20
2018-12-06T22:03:34.232Z,46.67
2018-12-06T22:06:03.516Z,51.83
2018-12-06T22:08:32.415Z,47.00
2018-12-06T22:11:01.513Z,47.60
2018-12-06T22:13:30.610Z,45.53
2018-12-06T22:15:59.482Z,48.90
2018-12-06T22:18:28.317Z,42.70
2018-12-06T22:20:57.586Z,45.77
2018-12-06T22:23:26.675Z,43.70
2018-12-06T22:25:55.651Z,47.50
2018-12-06T22:28:24.772Z,42.53
2018-12-06T22:30:53.671Z,42.20
2018-12-06T22:33:22.750Z,46.97
2018-12-06T22:35:51.948Z,40.27
2018-12-06T22:38:20.771Z,41.37
2018-12-06T22:40:49.969Z,33.63
2018-12-06T22:43:19.370Z,41.07
2018-12-06T22:48:41.218Z,49.00
2018-12-06T22:51:10.490Z,43.90
2018-12-06T22:53:40.265Z,46.13
2018-12-06T22:56:09.500Z,42.93
2018-12-06T22:58:38.467Z,49.63
2018-12-06T23:01:10.032Z,48.33
2018-12-06T23:03:39.139Z,47.30
2018-12-06T23:06:08.227Z,49.43
2018-12-06T23:08:37.819Z,51.50
2018-12-06T23:11:07.017Z,49.73
2018-12-06T23:13:36.555Z,51.87
2018-12-06T23:16:05.869Z,46.60
2018-12-06T23:18:35.160Z,47.17
2018-12-06T23:21:04.669Z,48.87
2018-12-06T23:23:33.581Z,45.77
2018-12-06T23:26:02.518Z,48.37
2018-12-06T23:28:31.638Z,36.20
2018-12-06T23:31:00.662Z,42.00
2018-12-06T23:33:32.166Z,37.33
2018-12-06T23:36:00.764Z,45.20
2018-12-06T23:38:29.865Z,43.47
2018-12-06T23:40:58.730Z,43.70
2018-12-06T23:43:27.961Z,47.70
2018-12-06T23:45:57.150Z,43.40
2018-12-06T23:48:26.050Z,43.23
2018-12-06T23:52:01.671Z,43.13
2018-12-06T23:54:30.789Z,44.97
2018-12-06T23:56:59.807Z,46.97
2018-12-06T23:59:29.441Z,44.60
